createdAt,value
2018-03-16T04:28:34.884Z,94525.31
2018-03-16T04:31:04.805Z,94532.25
2018-03-16T04:33:34.422Z,94539.56
2018-03-16T04:36:04.274Z,94538.20
2018-03-16T04:38:33.728Z,94534.74
2018-03-16T04:41:03.615Z,94532.81
2018-03-16T04:43:33.082Z,94534.33
2018-03-16T04:46:02.725Z,94535.88
2018-03-16T04:48:32.186Z,94542.23
2018-03-16T04:51:01.644Z,94538.59
2018-03-16T04:53:31.106Z,94540.49
2018-03-16T04:56:00.542Z,94539.73
2018-03-16T04:58:29.982Z,94541.84
2018-03-16T05:00:59.833Z,94536.25
2018-03-16T05:03:29.353Z,94539.34
2018-03-16T05:05:58.798Z,94545.87
2018-03-16T05:08:28.662Z,94543.56
2018-03-16T05:10:58.183Z,94541.63
2018-03-16T05:13:27.640Z,94539.48
2018-03-16T05:15:57.482Z,94538.11
2018-03-16T05:18:26.761Z,94536.34
2018-03-16T05:20:56.231Z,94542.65
2018-03-16T05:23:26.161Z,94544.00
2018-03-16T05:25:56.002Z,94541.47
2018-03-16T05:28:25.446Z,94553.42
2018-03-16T05:30:54.894Z,94552.86
2018-03-16T05:33:24.747Z,94563.48
2018-03-16T05:35:54.448Z,94566.78
2018-03-16T05:38:23.902Z,94561.80
2018-03-16T05:40:53.423Z,94569.31
2018-03-16T05:43:23.246Z,94574.71
2018-03-16T05:45:52.698Z,94580.31
2018-03-16T05:48:22.158Z,94581.65
2018-03-16T05:50:51.604Z,94581.83
2018-03-16T05:53:21.063Z,94586.44
2018-03-16T05:55:50.556Z,94587.77
2018-03-16T05:58:20.398Z,94582.17
2018-03-16T06:00:49.899Z,94591.59
2018-03-16T06:03:19.492Z,94588.09
2018-03-16T06:05:48.937Z,94598.36
2018-03-16T06:08:18.396Z,94599.63
2018-03-16T06:10:48.256Z,94601.20
2018-03-16T06:13:17.725Z,94601.56
2018-03-16T06:15:47.176Z,94598.63
2018-03-16T06:18:19.082Z,94606.33
2018-03-16T06:20:48.936Z,94609.63
2018-03-16T06:23:18.404Z,94609.75
2018-03-16T06:25:48.250Z,94617.12
2018-03-16T06:28:17.723Z,94618.52
2018-03-16T06:30:47.173Z,94611.86
2018-03-16T06:33:16.656Z,94610.44
2018-03-16T06:35:46.115Z,94615.17
2018-03-16T06:38:15.981Z,94613.16
2018-03-16T06:40:45.422Z,94617.74
2018-03-16T06:43:14.927Z,94623.28
2018-03-16T06:45:44.572Z,94623.46
2018-03-16T06:48:14.026Z,94621.46
2018-03-16T06:50:43.676Z,94630.22
2018-03-16T06:53:13.530Z,94627.89
2018-03-16T06:55:42.991Z,94623.19
2018-03-16T06:58:12.850Z,94634.81
2018-03-16T07:00:42.328Z,94630.42
2018-03-16T07:03:11.788Z,94635.19
2018-03-16T07:05:41.234Z,94636.48
2018-03-16T07:08:10.729Z,94635.20
2018-03-16T07:10:40.807Z,94646.73
2018-03-16T07:13:10.289Z,94641.84
2018-03-16T07:15:39.754Z,94647.62
2018-03-16T07:18:09.868Z,94651.93
2018-03-16T07:20:39.734Z,94649.58
2018-03-16T07:23:09.188Z,94650.53
2018-03-16T07:25:39.050Z,94656.80
2018-03-16T07:28:08.676Z,94652.78
2018-03-16T07:30:38.130Z,94659.16
2018-03-16T07:33:07.576Z,94660.28
2018-03-16T07:35:37.051Z,94664.92
2018-03-16T07:38:07.316Z,94663.45
2018-03-16T07:40:37.161Z,94664.75
2018-03-16T07:43:07.001Z,94669.42
2018-03-16T07:45:41.861Z,94672.30
2018-03-16T07:48:11.340Z,94675.71
2018-03-16T07:50:40.777Z,94681.69
2018-03-16T07:53:10.239Z,94675.25
2018-03-16T07:55:39.700Z,94681.42
2018-03-16T07:58:09.303Z,94681.56
2018-03-16T08:00:38.769Z,94691.02
2018-03-16T08:03:08.449Z,94691.96
2018-03-16T08:05:38.328Z,94697.47
2018-03-16T08:08:07.777Z,94691.47
2018-03-16T08:10:37.639Z,94699.27
2018-03-16T08:13:07.328Z,94699.09
2018-03-16T08:15:36.786Z,94706.60
2018-03-16T08:18:06.151Z,94707.57
2018-03-16T08:20:35.599Z,94698.52
2018-03-16T08:23:05.442Z,94702.85
2018-03-16T08:25:35.117Z,94698.75
2018-03-16T08:28:05.045Z,94712.90
2018-03-16T08:30:34.654Z,94717.45
2018-03-16T08:33:04.769Z,94711.12
2018-03-16T08:35:34.614Z,94708.50
2018-03-16T08:38:04.063Z,94707.97
2018-03-16T08:40:33.549Z,94710.78
2018-03-16T08:43:03.001Z,94701.86
2018-03-16T08:45:32.857Z,94705.38
2018-03-16T08:48:02.327Z,94705.44
2018-03-16T08:50:31.774Z,94702.64
2018-03-16T08:53:01.047Z,94703.77
2018-03-16T08:55:30.555Z,94700.48
2018-03-16T08:58:00.165Z,94697.48
2018-03-16T09:00:29.605Z,94700.26
2018-03-16T09:02:59.067Z,94701.42
2018-03-16T09:05:28.527Z,94707.95
2018-03-16T09:07:58.173Z,94704.25
2018-03-16T09:10:27.619Z,94705.66
2018-03-16T09:12:57.075Z,94710.43
2018-03-16T09:15:26.525Z,94712.28
2018-03-16T09:17:55.967Z,94714.37
2018-03-16T09:20:25.799Z,94712.66
2018-03-16T09:22:55.235Z,94716.18
2018-03-16T09:25:24.687Z,94717.97
2018-03-16T09:27:54.519Z,94719.52
2018-03-16T09:30:23.956Z,94719.82
2018-03-16T09:32:53.401Z,94722.43
2018-03-16T09:35:23.280Z,94723.84
2018-03-16T09:37:52.932Z,94722.89
2018-03-16T09:40:22.771Z,94729.36
2018-03-16T09:42:52.030Z,94731.91
2018-03-16T09:45:21.484Z,94729.34
2018-03-16T09:47:50.921Z,94735.89
2018-03-16T09:50:20.381Z,94722.10
2018-03-16T09:52:49.840Z,94729.02
2018-03-16T09:58:27.277Z,94726.77
2018-03-16T10:00:57.119Z,94725.63
2018-03-16T10:03:26.560Z,94721.20
2018-03-16T10:05:56.034Z,94724.27
2018-03-16T10:08:25.515Z,94724.20
2018-03-16T10:10:55.013Z,94720.21
2018-03-16T10:13:24.873Z,94717.38
2018-03-16T10:15:54.398Z,94720.95
2018-03-16T10:18:23.842Z,94715.51
2018-03-16T10:20:53.691Z,94723.66
2018-03-16T10:23:23.145Z,94725.14
2018-03-16T10:25:52.985Z,94721.04
2018-03-16T10:28:22.438Z,94728.35
2018-03-16T10:30:51.905Z,94728.16
2018-03-16T10:33:21.543Z,94725.99
2018-03-16T10:35:50.991Z,94721.81
2018-03-16T10:38:20.833Z,94722.83
2018-03-16T10:40:50.281Z,94725.15
2018-03-16T10:43:19.731Z,94729.39
2018-03-16T10:45:49.182Z,94720.77
2018-03-16T10:48:18.638Z,94719.48
2018-03-16T10:50:48.105Z,94726.70
2018-03-16T10:53:17.540Z,94721.70
2018-03-16T10:55:46.999Z,94726.20
2018-03-16T10:58:16.655Z,94722.92
2018-03-16T11:00:51.587Z,94730.88
2018-03-16T11:03:21.432Z,94726.37
2018-03-16T11:05:54.723Z,94732.52
2018-03-16T11:08:29.459Z,94737.46
2018-03-16T11:10:59.092Z,94732.62
2018-03-16T11:13:28.819Z,94728.53
2018-03-16T11:15:58.685Z,94729.12
2018-03-16T11:18:28.211Z,94733.69
2018-03-16T11:20:57.695Z,94736.38
2018-03-16T11:23:27.164Z,94750.63
2018-03-16T11:25:57.211Z,94739.53
2018-03-16T11:28:26.667Z,94739.55
2018-03-16T11:30:56.127Z,94740.72
2018-03-16T11:33:25.581Z,94744.09
2018-03-16T11:35:55.517Z,94742.61
2018-03-16T11:38:25.571Z,94750.42
2018-03-16T11:40:55.057Z,94751.79
2018-03-16T11:43:24.724Z,94745.84
2018-03-16T11:45:54.607Z,94742.68
2018-03-16T11:48:24.052Z,94747.61
2018-03-16T11:50:53.917Z,94743.86
2018-03-16T11:53:23.391Z,94742.67
2018-03-16T11:55:52.847Z,94735.58
2018-03-16T11:58:22.293Z,94734.75
2018-03-16T12:00:51.773Z,94732.27
2018-03-16T12:03:21.219Z,94720.61
2018-03-16T12:05:50.477Z,94727.13
2018-03-16T12:08:19.951Z,94721.70
2018-03-16T12:10:49.467Z,94716.80
2018-03-16T12:13:19.113Z,94717.57
2018-03-16T12:15:48.963Z,94725.84
2018-03-16T12:18:19.326Z,94722.07
2018-03-16T12:20:48.777Z,94723.12
2018-03-16T12:23:18.224Z,94720.79
2018-03-16T12:25:47.675Z,94725.74
2018-03-16T12:28:16.559Z,94725.48
2018-03-16T12:30:46.433Z,94716.64
2018-03-16T12:33:15.878Z,94713.97
2018-03-16T12:35:45.730Z,94715.31
2018-03-16T12:38:15.210Z,94722.54
2018-03-16T12:40:44.869Z,94715.73
2018-03-16T12:43:14.371Z,94716.48
2018-03-16T12:45:44.009Z,94715.53
2018-03-16T12:48:13.855Z,94710.30
2018-03-16T12:50:43.317Z,94711.77
2018-03-16T12:53:12.769Z,94709.55
2018-03-16T12:55:42.230Z,94706.83
2018-03-16T12:58:11.677Z,94701.89
2018-03-16T13:00:41.131Z,94708.58
2018-03-16T13:03:10.598Z,94712.02
2018-03-16T13:05:40.055Z,94704.14
2018-03-16T13:08:09.181Z,94703.45
2018-03-16T13:10:38.619Z,94699.19
2018-03-16T13:13:08.115Z,94697.33
2018-03-16T13:15:37.582Z,94696.45
2018-03-16T13:18:07.428Z,94691.23
2018-03-16T13:20:36.879Z,94692.77
2018-03-16T13:23:06.537Z,94688.02
2018-03-16T13:25:35.995Z,94686.72
2018-03-16T13:28:05.841Z,94689.78
2018-03-16T13:30:35.892Z,94682.11
2018-03-16T13:33:05.134Z,94682.63
2018-03-16T13:35:34.782Z,94676.83
2018-03-16T13:38:04.272Z,94675.89
2018-03-16T13:40:33.734Z,94670.81
2018-03-16T13:43:03.188Z,94669.77
2018-03-16T13:45:32.406Z,94666.93
2018-03-16T13:48:01.860Z,94669.88
2018-03-16T13:50:31.521Z,94664.91
2018-03-16T13:53:01.057Z,94667.88
2018-03-16T13:55:30.506Z,94658.23
2018-03-16T13:57:59.950Z,94647.44
2018-03-16T14:00:29.418Z,94649.86
2018-03-16T14:02:58.878Z,94643.58
2018-03-16T14:05:28.320Z,94647.89
2018-03-16T14:07:57.794Z,94641.98
2018-03-16T14:10:27.656Z,94639.34
2018-03-16T14:12:57.128Z,94650.99
2018-03-16T14:15:26.990Z,94643.63
2018-03-16T14:17:56.441Z,94643.64
2018-03-16T14:20:26.298Z,94643.83
2018-03-16T14:22:55.931Z,94640.61
2018-03-16T14:25:25.404Z,94639.33
2018-03-16T14:27:54.904Z,94636.27
2018-03-16T14:30:24.935Z,94632.59
2018-03-16T14:32:54.220Z,94632.59
2018-03-16T14:35:23.875Z,94632.26
2018-03-16T14:37:53.437Z,94620.66
2018-03-16T14:40:22.898Z,94628.27
2018-03-16T14:42:52.622Z,94623.62
2018-03-16T14:45:22.471Z,94624.61
2018-03-16T14:47:51.928Z,94630.02
2018-03-16T14:50:21.802Z,94617.25
2018-03-16T14:52:51.470Z,94615.03
2018-03-16T14:55:21.319Z,94614.20
2018-03-16T14:57:50.784Z,94613.68
2018-03-16T15:00:20.660Z,94609.88
2018-03-16T15:02:50.110Z,94613.06
2018-03-16T15:05:19.577Z,94608.06
2018-03-16T15:07:49.055Z,94607.59
2018-03-16T15:10:18.520Z,94605.48
2018-03-16T15:12:48.378Z,94611.38
2018-03-16T15:15:17.826Z,94602.98
2018-03-16T15:17:47.663Z,94604.63
2018-03-16T15:20:17.156Z,94599.01
2018-03-16T15:22:47.007Z,94593.13
2018-03-16T15:25:16.974Z,94597.51
2018-03-16T15:27:46.848Z,94597.06
2018-03-16T15:30:16.315Z,94596.72
2018-03-16T15:32:45.787Z,94599.02
2018-03-16T15:35:15.672Z,94597.55
2018-03-16T15:37:45.120Z,94594.22
2018-03-16T15:40:14.980Z,94584.26
2018-03-16T15:42:44.436Z,94576.67
2018-03-16T15:45:14.279Z,94575.88
2018-03-16T15:47:44.580Z,94579.56
2018-03-16T15:50:14.482Z,94573.23
2018-03-16T15:52:44.952Z,94567.31
2018-03-16T15:55:14.458Z,94572.27
2018-03-16T15:57:44.074Z,94567.78
2018-03-16T16:00:13.532Z,94569.44
2018-03-16T16:02:43.378Z,94568.51
2018-03-16T16:05:12.864Z,94569.71
2018-03-16T16:07:42.734Z,94572.45
2018-03-16T16:10:12.402Z,94569.06
2018-03-16T16:12:41.862Z,94563.72
2018-03-16T16:15:11.353Z,94565.20
2018-03-16T16:17:41.006Z,94566.71
2018-03-16T16:20:10.875Z,94560.91
2018-03-16T16:22:40.337Z,94567.75
2018-03-16T16:25:09.808Z,94564.09
2018-03-16T16:27:39.924Z,94569.98
2018-03-16T16:30:09.402Z,94565.52
2018-03-16T16:32:38.888Z,94567.56
2018-03-16T16:35:08.342Z,94559.72
2018-03-16T16:37:37.801Z,94559.37
2018-03-16T16:40:06.940Z,94570.16
2018-03-16T16:42:36.388Z,94571.05
2018-03-16T16:45:05.581Z,94565.13
2018-03-16T16:47:35.628Z,94570.39
2018-03-16T16:50:04.822Z,94574.28
2018-03-16T16:52:34.599Z,94579.11
2018-03-16T16:55:04.183Z,94584.50
2018-03-16T16:57:33.724Z,94591.31
2018-03-16T17:00:03.184Z,94583.54
2018-03-16T17:02:32.674Z,94590.77
2018-03-16T17:05:02.134Z,94591.69
2018-03-16T17:07:31.604Z,94596.50
2018-03-16T17:10:00.874Z,94602.47
2018-03-16T17:12:30.542Z,94607.95
2018-03-16T17:15:00.390Z,94606.95
2018-03-16T17:17:29.858Z,94601.31
2018-03-16T17:19:59.970Z,94600.29
2018-03-16T17:22:29.854Z,94607.09
2018-03-16T17:24:59.503Z,94600.81
2018-03-16T17:27:29.389Z,94604.25
2018-03-16T17:29:59.040Z,94603.35
2018-03-16T17:32:28.486Z,94607.44
2018-03-16T17:34:57.966Z,94613.20
2018-03-16T17:37:27.734Z,94613.31
2018-03-16T17:39:57.592Z,94615.68
2018-03-16T17:42:27.054Z,94618.84
2018-03-16T17:44:56.904Z,94609.43
2018-03-16T17:47:26.342Z,94613.19
2018-03-16T17:49:55.798Z,94619.69
2018-03-16T17:52:25.440Z,94616.44
2018-03-16T17:54:54.939Z,94625.16
2018-03-16T17:57:24.938Z,94625.97
2018-03-16T17:59:54.372Z,94623.11
2018-03-16T18:02:23.817Z,94611.13
2018-03-16T18:04:53.660Z,94607.88
2018-03-16T18:07:23.338Z,94611.89
2018-03-16T18:09:53.193Z,94609.42
2018-03-16T18:12:22.649Z,94615.02
2018-03-16T18:14:52.110Z,94616.66
2018-03-16T18:17:21.872Z,94609.33
2018-03-16T18:19:51.721Z,94614.23
2018-03-16T18:22:21.193Z,94610.15
2018-03-16T18:24:51.033Z,94613.51
2018-03-16T18:27:20.488Z,94609.42
2018-03-16T18:29:49.751Z,94605.63
2018-03-16T18:32:19.020Z,94601.22
2018-03-16T18:34:48.872Z,94605.78
2018-03-16T18:37:18.319Z,94608.89
2018-03-16T18:39:48.173Z,94614.58
2018-03-16T18:42:17.620Z,94607.52
2018-03-16T18:44:47.088Z,94614.63
2018-03-16T18:47:16.549Z,94615.41
2018-03-16T18:49:46.397Z,94612.81
2018-03-16T18:52:15.901Z,94610.84
2018-03-16T18:54:45.499Z,94608.45
2018-03-16T18:57:14.936Z,94608.03
2018-03-16T18:59:44.396Z,94614.70
2018-03-16T19:02:14.250Z,94609.23
2018-03-16T19:04:43.723Z,94606.41
2018-03-16T19:07:13.183Z,94603.30
2018-03-16T19:09:42.640Z,94604.81
2018-03-16T19:12:12.286Z,94597.56
2018-03-16T19:14:41.729Z,94597.37
2018-03-16T19:17:11.782Z,94589.14
2018-03-16T19:19:41.235Z,94584.14
2018-03-16T19:22:10.691Z,94579.27
2018-03-16T19:24:40.153Z,94575.58
2018-03-16T19:27:09.791Z,94568.23
2018-03-16T19:29:39.245Z,94564.72
2018-03-16T19:32:08.693Z,94557.47
2018-03-16T19:34:38.157Z,94548.23
2018-03-16T19:37:07.621Z,94541.33
2018-03-16T19:39:37.271Z,94536.00
2018-03-16T19:42:06.721Z,94529.23
2018-03-16T19:44:36.193Z,94528.30
2018-03-16T19:47:05.312Z,94538.52
2018-03-16T19:49:35.161Z,94536.66
2018-03-16T19:52:04.609Z,94539.40
2018-03-16T19:54:34.098Z,94536.78
2018-03-16T19:57:03.693Z,94550.33
2018-03-16T19:59:32.959Z,94553.44
2018-03-16T20:02:02.413Z,94567.66
2018-03-16T20:04:31.885Z,94571.41
2018-03-16T20:07:01.575Z,94567.19
2018-03-16T20:09:31.051Z,94577.94
2018-03-16T20:12:00.898Z,94573.34
2018-03-16T20:14:30.348Z,94574.77
2018-03-16T20:16:59.801Z,94568.44
2018-03-16T20:19:29.235Z,94579.49
2018-03-16T20:21:58.679Z,94579.52
2018-03-16T20:24:28.533Z,94581.37
2018-03-16T20:26:57.973Z,94577.75
2018-03-16T20:29:27.427Z,94582.92
2018-03-16T20:31:56.885Z,94590.07
2018-03-16T20:34:26.331Z,94595.63
2018-03-16T20:36:55.806Z,94601.70
2018-03-16T20:39:25.427Z,94596.19
2018-03-16T20:41:55.280Z,94588.28
2018-03-16T20:44:24.780Z,94588.50
2018-03-16T20:46:54.215Z,94589.50
2018-03-16T20:49:23.667Z,94592.00
2018-03-16T20:51:53.511Z,94596.77
2018-03-16T20:54:22.965Z,94586.03
2018-03-16T20:56:52.421Z,94574.77
2018-03-16T20:59:21.849Z,94577.50
2018-03-16T21:01:51.303Z,94581.56
2018-03-16T21:04:20.739Z,94583.93
2018-03-16T21:06:50.191Z,94595.06
2018-03-16T21:09:20.050Z,94592.24
2018-03-16T21:11:49.695Z,94594.50
2018-03-16T21:14:19.135Z,94587.58
2018-03-16T21:16:48.585Z,94582.52
2018-03-16T21:19:18.041Z,94579.70
2018-03-16T21:21:47.887Z,94582.34
2018-03-16T21:24:17.358Z,94579.59
2018-03-16T21:26:47.192Z,94576.26
2018-03-16T21:29:16.631Z,94583.41
2018-03-16T21:31:46.100Z,94579.45
2018-03-16T21:34:15.539Z,94579.86
2018-03-16T21:36:44.981Z,94573.69
2018-03-16T21:39:14.835Z,94568.86
2018-03-16T21:41:44.301Z,94562.88
2018-03-16T21:44:14.339Z,94557.08
2018-03-16T21:46:43.795Z,94550.09
2018-03-16T21:49:13.235Z,94546.09
2018-03-16T21:51:43.107Z,94550.91
2018-03-16T21:54:12.551Z,94549.77
2018-03-16T21:56:42.405Z,94546.89
2018-03-16T21:59:11.885Z,94546.15
2018-03-16T22:01:41.341Z,94541.85
2018-03-16T22:04:10.786Z,94538.66
2018-03-16T22:06:40.247Z,94537.38
2018-03-16T22:09:09.712Z,94542.42
2018-03-16T22:11:39.161Z,94541.46
2018-03-16T22:14:08.615Z,94536.87
2018-03-16T22:16:38.083Z,94533.11
2018-03-16T22:19:07.517Z,94532.62
2018-03-16T22:21:36.958Z,94535.98
2018-03-16T22:24:06.412Z,94532.63
2018-03-16T22:26:36.265Z,94533.81
2018-03-16T22:29:05.897Z,94531.11
2018-03-16T22:31:35.342Z,94535.41
2018-03-16T22:34:05.007Z,94536.41
2018-03-16T22:36:34.479Z,94536.22
2018-03-16T22:39:03.497Z,94538.84
2018-03-16T22:41:32.286Z,94533.41
2018-03-16T22:44:01.736Z,94529.22
2018-03-16T22:46:31.587Z,94531.09
2018-03-16T22:49:01.051Z,94528.28
2018-03-16T22:51:30.891Z,94530.18
2018-03-16T22:54:00.333Z,94517.92
2018-03-16T22:56:29.891Z,94517.56
2018-03-16T22:58:59.607Z,94510.64
2018-03-16T23:01:29.057Z,94510.30
2018-03-16T23:03:58.505Z,94512.82
2018-03-16T23:06:28.335Z,94502.81
2018-03-16T23:08:57.809Z,94507.48
2018-03-16T23:11:27.653Z,94504.20
2018-03-16T23:13:57.132Z,94494.77
2018-03-16T23:16:27.181Z,94480.22
2018-03-16T23:18:56.656Z,94471.97
2018-03-16T23:21:26.531Z,94472.96
2018-03-16T23:23:55.995Z,94466.09
2018-03-16T23:26:25.447Z,94470.69
2018-03-16T23:28:54.917Z,94454.91
2018-03-16T23:31:24.379Z,94451.28
2018-03-16T23:33:54.263Z,94448.16
2018-03-16T23:36:23.753Z,94447.95
2018-03-16T23:38:53.187Z,94442.72
2018-03-16T23:41:22.646Z,94443.45
2018-03-16T23:43:52.121Z,94440.19
2018-03-16T23:46:21.993Z,94433.98
2018-03-16T23:48:51.447Z,94438.64
2018-03-16T23:51:21.287Z,94441.48
2018-03-16T23:53:50.731Z,94437.80
2018-03-16T23:56:20.177Z,94437.36
2018-03-16T23:58:49.625Z,94434.65
